sensor_id;sensor_type;location;lat;lon;timestamp;pressure;altitude;pressure_sealevel;temperature;humidity
57248;BME280;55809;46.618;10.764;2023-05-03T00:00:45;93342.13;;;10.38;56.81
57248;BME280;55809;46.618;10.764;2023-05-03T00:03:12;93352.16;;;10.33;57.66
57248;BME280;55809;46.618;10.764;2023-05-03T00:05:39;93347.13;;;10.28;58.12
57248;BME280;55809;46.618;10.764;2023-05-03T00:08:08;93342.47;;;10.25;58.40
57248;BME280;55809;46.618;10.764;2023-05-03T00:10:42;93342.91;;;10.27;58.29
57248;BME280;55809;46.618;10.764;2023-05-03T00:13:10;93334.78;;;10.24;58.00
57248;BME280;55809;46.618;10.764;2023-05-03T00:15:41;93344.41;;;10.18;58.47
57248;BME280;55809;46.618;10.764;2023-05-03T00:18:08;93336.69;;;10.05;57.81
57248;BME280;55809;46.618;10.764;2023-05-03T00:20:42;93327.06;;;10.01;58.05
57248;BME280;55809;46.618;10.764;2023-05-03T00:23:11;93331.69;;;10.04;58.20
57248;BME280;55809;46.618;10.764;2023-05-03T00:25:39;93333.63;;;10.07;58.12
57248;BME280;55809;46.618;10.764;2023-05-03T00:28:12;93329.38;;;9.99;58.40
57248;BME280;55809;46.618;10.764;2023-05-03T00:30:39;93332.81;;;9.96;58.41
57248;BME280;55809;46.618;10.764;2023-05-03T00:33:07;93329.38;;;9.99;58.16
57248;BME280;55809;46.618;10.764;2023-05-03T00:35:37;93330.91;;;9.89;59.08
57248;BME280;55809;46.618;10.764;2023-05-03T00:38:05;93337.44;;;9.88;59.37
57248;BME280;55809;46.618;10.764;2023-05-03T00:40:39;93324.34;;;9.86;59.70
57248;BME280;55809;46.618;10.764;2023-05-03T00:43:16;93315.47;;;9.82;59.48
57248;BME280;55809;46.618;10.764;2023-05-03T00:45:43;93319.34;;;9.89;58.94
57248;BME280;55809;46.618;10.764;2023-05-03T00:48:11;93306.22;;;9.83;58.42
57248;BME280;55809;46.618;10.764;2023-05-03T00:50:45;93325.50;;;9.85;58.76
57248;BME280;55809;46.618;10.764;2023-05-03T00:53:14;93317.03;;;9.91;58.70
57248;BME280;55809;46.618;10.764;2023-05-03T00:55:58;93318.56;;;9.92;58.17
57248;BME280;55809;46.618;10.764;2023-05-03T00:58:36;93317.41;;;10.03;57.89
57248;BME280;55809;46.618;10.764;2023-05-03T01:01:07;93310.88;;;9.97;57.31
57248;BME280;55809;46.618;10.764;2023-05-03T01:03:41;93312.41;;;9.95;57.43
57248;BME280;55809;46.618;10.764;2023-05-03T01:06:22;93311.66;;;10.08;57.20
57248;BME280;55809;46.618;10.764;2023-05-03T01:09:02;93306.25;;;10.12;56.96
57248;BME280;55809;46.618;10.764;2023-05-03T01:11:39;93306.63;;;10.03;56.56
57248;BME280;55809;46.618;10.764;2023-05-03T01:14:26;93313.19;;;10.02;57.14
57248;BME280;55809;46.618;10.764;2023-05-03T01:17:08;93307.41;;;10.04;57.40
57248;BME280;55809;46.618;10.764;2023-05-03T01:19:43;93316.66;;;9.96;57.62
57248;BME280;55809;46.618;10.764;2023-05-03T01:22:20;93308.16;;;9.90;57.57
57248;BME280;55809;46.618;10.764;2023-05-03T01:25:08;93301.63;;;9.91;57.17
57248;BME280;55809;46.618;10.764;2023-05-03T01:27:43;93313.19;;;9.92;56.78
57248;BME280;55809;46.618;10.764;2023-05-03T01:30:11;93292.75;;;9.76;56.27
57248;BME280;55809;46.618;10.764;2023-05-03T01:32:51;93308.19;;;9.94;56.66
57248;BME280;55809;46.618;10.764;2023-05-03T01:35:28;93301.22;;;9.93;56.74
57248;BME280;55809;46.618;10.764;2023-05-03T01:37:58;93312.78;;;9.97;56.87
57248;BME280;55809;46.618;10.764;2023-05-03T01:40:48;93317.03;;;9.98;56.59
57248;BME280;55809;46.618;10.764;2023-05-03T01:43:34;93310.88;;;10.01;56.72
57248;BME280;55809;46.618;10.764;2023-05-03T01:46:04;93315.47;;;9.93;56.55
57248;BME280;55809;46.618;10.764;2023-05-03T01:48:41;93309.31;;;9.93;56.96
57248;BME280;55809;46.618;10.764;2023-05-03T01:51:13;93309.31;;;9.93;56.74
57248;BME280;55809;46.618;10.764;2023-05-03T01:53:43;93319.34;;;9.92;56.50
57248;BME280;55809;46.618;10.764;2023-05-03T01:56:28;93312.41;;;9.91;56.25
57248;BME280;55809;46.618;10.764;2023-05-03T01:58:58;93312.41;;;9.95;56.65
57248;BME280;55809;46.618;10.764;2023-05-03T02:01:32;93313.94;;;9.96;56.81
57248;BME280;55809;46.618;10.764;2023-05-03T02:04:01;93312.41;;;9.91;56.68
57248;BME280;55809;46.618;10.764;2023-05-03T02:06:35;93297.38;;;9.79;56.58
57248;BME280;55809;46.618;10.764;2023-05-03T02:09:02;93316.66;;;9.89;56.39
57248;BME280;55809;46.618;10.764;2023-05-03T02:11:36;93306.22;;;9.76;56.74
57248;BME280;55809;46.618;10.764;2023-05-03T02:14:05;93323.97;;;9.84;56.66
57248;BME280;55809;46.618;10.764;2023-05-03T02:16:32;93320.88;;;9.86;56.11
57248;BME280;55809;46.618;10.764;2023-05-03T02:19:02;93328.97;;;9.86;56.51
57248;BME280;55809;46.618;10.764;2023-05-03T02:21:33;93327.78;;;9.83;56.71
57248;BME280;55809;46.618;10.764;2023-05-03T02:24:03;93333.94;;;9.80;56.85
57248;BME280;55809;46.618;10.764;2023-05-03T02:26:41;93333.19;;;9.80;56.56
57248;BME280;55809;46.618;10.764;2023-05-03T02:29:11;93322.41;;;9.73;56.75
57248;BME280;55809;46.618;10.764;2023-05-03T02:31:40;93330.13;;;9.78;56.17
57248;BME280;55809;46.618;10.764;2023-05-03T02:34:08;93326.66;;;9.84;56.39
57248;BME280;55809;46.618;10.764;2023-05-03T02:36:37;93333.59;;;9.85;56.31
57248;BME280;55809;46.618;10.764;2023-05-03T02:39:07;93318.16;;;9.72;56.37
57248;BME280;55809;46.618;10.764;2023-05-03T02:41:43;93330.13;;;9.81;55.68
57248;BME280;55809;46.618;10.764;2023-05-03T02:44:14;93325.88;;;9.80;55.95
57248;BME280;55809;46.618;10.764;2023-05-03T02:46:45;93316.25;;;9.72;56.02
57248;BME280;55809;46.618;10.764;2023-05-03T02:49:14;93332.41;;;9.79;55.42
57248;BME280;55809;46.618;10.764;2023-05-03T02:51:43;93340.91;;;9.74;56.13
57248;BME280;55809;46.618;10.764;2023-05-03T02:54:12;93326.59;;;9.56;56.70
57248;BME280;55809;46.618;10.764;2023-05-03T02:56:58;93341.66;;;9.64;56.16
57248;BME280;55809;46.618;10.764;2023-05-03T02:59:31;93315.41;;;9.47;56.74
57248;BME280;55809;46.618;10.764;2023-05-03T03:01:59;93333.16;;;9.66;56.48
57248;BME280;55809;46.618;10.764;2023-05-03T03:04:31;93342.03;;;9.66;56.61
57248;BME280;55809;46.618;10.764;2023-05-03T03:07:13;93335.09;;;9.61;56.62
57248;BME280;55809;46.618;10.764;2023-05-03T03:09:44;93340.84;;;9.60;56.80
57248;BME280;55809;46.618;10.764;2023-05-03T03:12:13;93339.31;;;9.62;56.16
57248;BME280;55809;46.618;10.764;2023-05-03T03:14:42;93340.47;;;9.58;56.35
57248;BME280;55809;46.618;10.764;2023-05-03T03:17:11;93343.94;;;9.55;56.68
57248;BME280;55809;46.618;10.764;2023-05-03T03:19:40;93344.69;;;9.48;56.79
57248;BME280;55809;46.618;10.764;2023-05-03T03:22:11;93356.22;;;9.42;56.59
57248;BME280;55809;46.618;10.764;2023-05-03T03:24:41;93350.41;;;9.32;57.15
57248;BME280;55809;46.618;10.764;2023-05-03T03:27:42;93358.50;;;9.36;57.72
57248;BME280;55809;46.618;10.764;2023-05-03T03:30:11;93351.94;;;9.33;58.01
57248;BME280;55809;46.618;10.764;2023-05-03T03:32:46;93355.03;;;9.32;58.10
57248;BME280;55809;46.618;10.764;2023-05-03T03:35:16;93358.50;;;9.36;57.97
57248;BME280;55809;46.618;10.764;2023-05-03T03:37:44;93335.72;;;9.19;57.98
57248;BME280;55809;46.618;10.764;2023-05-03T03:40:11;93360.41;;;9.35;57.98
57248;BME280;55809;46.618;10.764;2023-05-03T03:42:42;93358.50;;;9.36;57.45
57248;BME280;55809;46.618;10.764;2023-05-03T03:45:10;93358.47;;;9.32;58.22
57248;BME280;55809;46.618;10.764;2023-05-03T03:47:39;93361.16;;;9.29;58.66
57248;BME280;55809;46.618;10.764;2023-05-03T03:50:08;93356.53;;;9.26;58.52
57248;BME280;55809;46.618;10.764;2023-05-03T03:52:44;93350.34;;;9.18;58.69
57248;BME280;55809;46.618;10.764;2023-05-03T03:55:11;93368.06;;;9.26;57.98
57248;BME280;55809;46.618;10.764;2023-05-03T04:00:39;93375.41;;;9.29;58.44
57248;BME280;55809;46.618;10.764;2023-05-03T04:03:11;93374.63;;;9.29;58.57
57248;BME280;55809;46.618;10.764;2023-05-03T04:05:40;93358.81;;;9.20;58.52
57248;BME280;55809;46.618;10.764;2023-05-03T04:08:09;93376.56;;;9.32;58.03
57248;BME280;55809;46.618;10.764;2023-05-03T04:10:38;93374.63;;;9.22;58.93
57248;BME280;55809;46.618;10.764;2023-05-03T04:13:07;93377.69;;;9.24;58.70
57248;BME280;55809;46.618;10.764;2023-05-03T04:15:46;93376.16;;;9.30;58.28
57248;BME280;55809;46.618;10.764;2023-05-03T04:18:18;93379.63;;;9.27;58.57
57248;BME280;55809;46.618;10.764;2023-05-03T04:20:48;93382.31;;;9.27;59.29
57248;BME280;55809;46.618;10.764;2023-05-03T04:23:19;93373.47;;;9.26;59.04
57248;BME280;55809;46.618;10.764;2023-05-03T04:25:48;93379.28;;;9.32;58.74
57248;BME280;55809;46.618;10.764;2023-05-03T04:28:18;93375.00;;;9.27;58.60
57248;BME280;55809;46.618;10.764;2023-05-03T04:30:52;93376.19;;;9.33;58.46
57248;BME280;55809;46.618;10.764;2023-05-03T04:33:34;93378.09;;;9.29;58.39
57248;BME280;55809;46.618;10.764;2023-05-03T04:36:03;93387.38;;;9.35;57.86
57248;BME280;55809;46.618;10.764;2023-05-03T04:38:41;93391.19;;;9.34;58.17
57248;BME280;55809;46.618;10.764;2023-05-03T04:41:12;93387.34;;;9.32;59.08
57248;BME280;55809;46.618;10.764;2023-05-03T04:43:42;93396.19;;;9.32;59.32
57248;BME280;55809;46.618;10.764;2023-05-03T04:46:28;93393.09;;;9.27;59.50
57248;BME280;55809;46.618;10.764;2023-05-03T04:49:04;93393.91;;;9.38;59.86
57248;BME280;55809;46.618;10.764;2023-05-03T04:51:35;93398.59;;;9.52;59.31
57248;BME280;55809;46.618;10.764;2023-05-03T04:54:07;93399.00;;;9.65;58.87
57248;BME280;55809;46.618;10.764;2023-05-03T04:56:38;93398.25;;;9.71;59.08
57248;BME280;55809;46.618;10.764;2023-05-03T04:59:19;93376.69;;;9.64;58.75
57248;BME280;55809;46.618;10.764;2023-05-03T05:02:11;93384.41;;;9.87;57.62
57248;BME280;55809;46.618;10.764;2023-05-03T05:04:44;93392.16;;;10.10;57.13
57248;BME280;55809;46.618;10.764;2023-05-03T05:07:11;93397.59;;;10.24;56.85
57248;BME280;55809;46.618;10.764;2023-05-03T05:09:44;93374.06;;;10.25;55.31
57248;BME280;55809;46.618;10.764;2023-05-03T05:12:16;93394.91;;;10.46;56.10
57248;BME280;55809;46.618;10.764;2023-05-03T05:14:45;93368.72;;;10.36;55.51
57248;BME280;55809;46.618;10.764;2023-05-03T05:17:32;93397.22;;;10.72;55.24
57248;BME280;55809;46.618;10.764;2023-05-03T05:20:26;93399.94;;;10.83;55.52
57248;BME280;55809;46.618;10.764;2023-05-03T05:22:57;93397.97;;;10.98;55.00
57248;BME280;55809;46.618;10.764;2023-05-03T05:25:30;93402.19;;;11.06;54.39
57248;BME280;55809;46.618;10.764;2023-05-03T05:28:01;93401.38;;;11.23;54.43
57248;BME280;55809;46.618;10.764;2023-05-03T05:30:31;93404.78;;;11.38;53.31
57248;BME280;55809;46.618;10.764;2023-05-03T05:35:59;93400.81;;;11.68;52.93
57248;BME280;55809;46.618;10.764;2023-05-03T05:38:28;93408.09;;;11.92;53.05
57248;BME280;55809;46.618;10.764;2023-05-03T05:41:13;93414.09;;;12.22;52.49
57248;BME280;55809;46.618;10.764;2023-05-03T05:44:08;93398.41;;;12.54;51.75
57248;BME280;55809;46.618;10.764;2023-05-03T05:46:38;93411.25;;;12.91;50.80
57248;BME280;55809;46.618;10.764;2023-05-03T05:49:27;93403.22;;;13.19;49.48
57248;BME280;55809;46.618;10.764;2023-05-03T05:52:08;93402.53;;;13.52;48.70
57248;BME280;55809;46.618;10.764;2023-05-03T05:55:00;93390.41;;;13.91;47.78
57248;BME280;55809;46.618;10.764;2023-05-03T05:57:30;93396.88;;;14.28;46.45
57248;BME280;55809;46.618;10.764;2023-05-03T06:00:04;93389.88;;;14.58;46.13
57248;BME280;55809;46.618;10.764;2023-05-03T06:03:04;93391.19;;;14.96;45.05
57248;BME280;55809;46.618;10.764;2023-05-03T06:05:43;93379.94;;;15.18;44.15
57248;BME280;55809;46.618;10.764;2023-05-03T06:08:31;93369.38;;;15.43;43.60
57248;BME280;55809;46.618;10.764;2023-05-03T06:11:16;93384.44;;;15.88;43.11
57248;BME280;55809;46.618;10.764;2023-05-03T06:13:50;93387.22;;;16.04;41.64
57248;BME280;55809;46.618;10.764;2023-05-03T06:16:22;93384.59;;;16.17;41.76
57248;BME280;55809;46.618;10.764;2023-05-03T06:19:09;93380.53;;;16.41;41.25
57248;BME280;55809;46.618;10.764;2023-05-03T06:21:39;93384.94;;;16.72;40.78
57248;BME280;55809;46.618;10.764;2023-05-03T06:24:42;93381.44;;;16.87;40.40
57248;BME280;55809;46.618;10.764;2023-05-03T06:27:14;93381.13;;;16.85;40.14
57248;BME280;55809;46.618;10.764;2023-05-03T06:29:46;93367.38;;;17.05;39.95
57248;BME280;55809;46.618;10.764;2023-05-03T06:32:33;93378.09;;;17.13;39.92
57248;BME280;55809;46.618;10.764;2023-05-03T06:35:02;93377.53;;;17.34;39.33
57248;BME280;55809;46.618;10.764;2023-05-03T06:38:01;93378.38;;;17.60;39.13
57248;BME280;55809;46.618;10.764;2023-05-03T06:41:11;93378.31;;;18.05;38.23
57248;BME280;55809;46.618;10.764;2023-05-03T06:43:41;93381.41;;;18.33;37.33
57248;BME280;55809;46.618;10.764;2023-05-03T06:46:26;93381.63;;;18.51;36.75
57248;BME280;55809;46.618;10.764;2023-05-03T06:48:58;93379.22;;;18.66;37.01
57248;BME280;55809;46.618;10.764;2023-05-03T06:51:31;93375.06;;;18.62;36.74
57248;BME280;55809;46.618;10.764;2023-05-03T06:54:03;93375.59;;;18.69;36.59
57248;BME280;55809;46.618;10.764;2023-05-03T07:00:23;93368.81;;;19.00;35.57
57248;BME280;55809;46.618;10.764;2023-05-03T07:03:00;93372.19;;;18.91;35.42
57248;BME280;55809;46.618;10.764;2023-05-03T07:05:30;93374.16;;;19.03;35.27
57248;BME280;55809;46.618;10.764;2023-05-03T07:08:06;93362.53;;;19.12;34.76
57248;BME280;55809;46.618;10.764;2023-05-03T07:11:20;93357.72;;;19.38;33.58
57248;BME280;55809;46.618;10.764;2023-05-03T07:14:03;93350.13;;;19.55;33.32
57248;BME280;55809;46.618;10.764;2023-05-03T07:17:06;93346.78;;;19.38;33.94
57248;BME280;55809;46.618;10.764;2023-05-03T07:19:59;93317.00;;;19.62;33.71
57248;BME280;55809;46.618;10.764;2023-05-03T07:22:44;93340.00;;;19.86;32.42
57248;BME280;55809;46.618;10.764;2023-05-03T07:25:28;93342.25;;;19.79;33.43
57248;BME280;55809;46.618;10.764;2023-05-03T07:28:10;93335.78;;;20.26;32.81
57248;BME280;55809;46.618;10.764;2023-05-03T07:30:40;93335.31;;;20.18;32.71
57248;BME280;55809;46.618;10.764;2023-05-03T07:33:22;93328.69;;;20.37;32.35
57248;BME280;55809;46.618;10.764;2023-05-03T07:35:49;93328.94;;;20.61;33.22
57248;BME280;55809;46.618;10.764;2023-05-03T07:38:16;93322.91;;;20.94;31.44
57248;BME280;55809;46.618;10.764;2023-05-03T07:40:43;93323.09;;;21.18;31.92
57248;BME280;55809;46.618;10.764;2023-05-03T07:43:10;93314.56;;;21.35;31.74
57248;BME280;55809;46.618;10.764;2023-05-03T07:45:37;93310.91;;;21.19;31.72
57248;BME280;55809;46.618;10.764;2023-05-03T07:48:04;93297.19;;;21.38;30.17
57248;BME280;55809;46.618;10.764;2023-05-03T07:50:33;93311.69;;;21.47;31.24
57248;BME280;55809;46.618;10.764;2023-05-03T07:53:00;93315.94;;;21.48;31.00
57248;BME280;55809;46.618;10.764;2023-05-03T07:55:27;93313.38;;;21.36;31.49
57248;BME280;55809;46.618;10.764;2023-05-03T07:57:55;93304.34;;;21.63;31.34
57248;BME280;55809;46.618;10.764;2023-05-03T08:00:24;93313.34;;;21.72;31.32
57248;BME280;55809;46.618;10.764;2023-05-03T08:02:51;93307.03;;;21.90;30.46
57248;BME280;55809;46.618;10.764;2023-05-03T08:05:19;93303.38;;;21.75;29.97
57248;BME280;55809;46.618;10.764;2023-05-03T08:07:49;93297.09;;;21.93;29.75
57248;BME280;55809;46.618;10.764;2023-05-03T08:10:18;93306.75;;;21.88;30.08
57248;BME280;55809;46.618;10.764;2023-05-03T08:12:47;93301.53;;;21.90;30.15
57248;BME280;55809;46.618;10.764;2023-05-03T08:15:15;93303.22;;;21.88;30.45
57248;BME280;55809;46.618;10.764;2023-05-03T08:17:45;93293.38;;;22.14;30.29
57248;BME280;55809;46.618;10.764;2023-05-03T08:20:14;93281.91;;;22.25;30.46
57248;BME280;55809;46.618;10.764;2023-05-03T08:22:42;93294.38;;;22.44;29.60
57248;BME280;55809;46.618;10.764;2023-05-03T08:25:13;93293.34;;;22.33;29.68
57248;BME280;55809;46.618;10.764;2023-05-03T08:27:48;93290.75;;;22.62;29.96
57248;BME280;55809;46.618;10.764;2023-05-03T08:30:16;93297.94;;;22.60;29.40
57248;BME280;55809;46.618;10.764;2023-05-03T08:32:45;93285.31;;;22.77;28.42
57248;BME280;55809;46.618;10.764;2023-05-03T08:35:13;93265.47;;;22.40;29.32
57248;BME280;55809;46.618;10.764;2023-05-03T08:37:44;93283.19;;;22.72;29.76
57248;BME280;55809;46.618;10.764;2023-05-03T08:40:14;93287.47;;;22.73;29.98
57248;BME280;55809;46.618;10.764;2023-05-03T08:42:43;93290.13;;;22.91;29.24
57248;BME280;55809;46.618;10.764;2023-05-03T08:45:13;93286.41;;;23.04;29.20
57248;BME280;55809;46.618;10.764;2023-05-03T08:47:41;93281.69;;;23.19;28.15
57248;BME280;55809;46.618;10.764;2023-05-03T08:50:12;93289.88;;;23.28;28.73
57248;BME280;55809;46.618;10.764;2023-05-03T08:52:41;93284.25;;;23.23;27.52
57248;BME280;55809;46.618;10.764;2023-05-03T08:55:10;93291.25;;;23.09;28.10
57248;BME280;55809;46.618;10.764;2023-05-03T08:57:43;93289.72;;;23.08;29.96
57248;BME280;55809;46.618;10.764;2023-05-03T09:00:12;93282.69;;;23.46;28.17
57248;BME280;55809;46.618;10.764;2023-05-03T09:02:41;93274.91;;;23.44;28.36
57248;BME280;55809;46.618;10.764;2023-05-03T09:05:31;93277.16;;;23.70;27.85
57248;BME280;55809;46.618;10.764;2023-05-03T09:08:02;93274.78;;;23.77;27.81
57248;BME280;55809;46.618;10.764;2023-05-03T09:10:30;93258.22;;;24.07;27.50
57248;BME280;55809;46.618;10.764;2023-05-03T09:13:01;93267.34;;;24.13;26.98
57248;BME280;55809;46.618;10.764;2023-05-03T09:15:30;93261.44;;;24.20;27.07
57248;BME280;55809;46.618;10.764;2023-05-03T09:18:10;93267.03;;;24.26;27.14
57248;BME280;55809;46.618;10.764;2023-05-03T09:20:40;93270.75;;;24.23;25.98
57248;BME280;55809;46.618;10.764;2023-05-03T09:23:11;93262.00;;;24.24;26.09
57248;BME280;55809;46.618;10.764;2023-05-03T09:25:43;93260.84;;;24.31;27.62
57248;BME280;55809;46.618;10.764;2023-05-03T09:28:14;93262.34;;;24.47;26.91
57248;BME280;55809;46.618;10.764;2023-05-03T09:30:43;93261.91;;;24.48;26.73
57248;BME280;55809;46.618;10.764;2023-05-03T09:33:12;93252.16;;;24.53;28.07
57248;BME280;55809;46.618;10.764;2023-05-03T09:35:56;93238.72;;;24.61;26.10
57248;BME280;55809;46.618;10.764;2023-05-03T09:38:25;93251.22;;;24.41;26.07
57248;BME280;55809;46.618;10.764;2023-05-03T09:40:53;93246.13;;;24.69;26.53
57248;BME280;55809;46.618;10.764;2023-05-03T09:43:24;93241.84;;;24.68;25.43
57248;BME280;55809;46.618;10.764;2023-05-03T09:45:52;93240.50;;;24.64;25.63
57248;BME280;55809;46.618;10.764;2023-05-03T09:48:34;93232.84;;;24.53;26.30
57248;BME280;55809;46.618;10.764;2023-05-03T09:51:03;93208.00;;;24.38;24.79
57248;BME280;55809;46.618;10.764;2023-05-03T09:53:32;93229.34;;;24.52;25.08
57248;BME280;55809;46.618;10.764;2023-05-03T09:56:02;93229.91;;;24.77;25.36
57248;BME280;55809;46.618;10.764;2023-05-03T09:58:35;93214.97;;;24.48;25.32
57248;BME280;55809;46.618;10.764;2023-05-03T10:01:04;93223.75;;;24.67;26.57
57248;BME280;55809;46.618;10.764;2023-05-03T10:03:41;93213.19;;;24.66;24.79
57248;BME280;55809;46.618;10.764;2023-05-03T10:06:23;93215.88;;;24.60;24.09
57248;BME280;55809;46.618;10.764;2023-05-03T10:09:00;93205.41;;;24.85;24.75
57248;BME280;55809;46.618;10.764;2023-05-03T10:11:33;93180.56;;;24.85;25.16
57248;BME280;55809;46.618;10.764;2023-05-03T10:14:05;93182.00;;;24.80;23.29
57248;BME280;55809;46.618;10.764;2023-05-03T10:16:37;93195.78;;;25.00;24.36
57248;BME280;55809;46.618;10.764;2023-05-03T10:19:10;93192.34;;;25.06;24.13
57248;BME280;55809;46.618;10.764;2023-05-03T10:21:53;93186.88;;;25.11;24.33
57248;BME280;55809;46.618;10.764;2023-05-03T10:24:22;93187.66;;;25.12;24.28
57248;BME280;55809;46.618;10.764;2023-05-03T10:26:55;93175.28;;;24.87;23.00
57248;BME280;55809;46.618;10.764;2023-05-03T10:29:52;93180.50;;;24.59;23.43
57248;BME280;55809;46.618;10.764;2023-05-03T10:32:32;93177.66;;;24.38;22.55
57248;BME280;55809;46.618;10.764;2023-05-03T10:35:01;93147.22;;;24.47;26.56
57248;BME280;55809;46.618;10.764;2023-05-03T10:37:31;93169.78;;;24.10;24.39
57248;BME280;55809;46.618;10.764;2023-05-03T10:40:05;93167.75;;;24.26;23.66
57248;BME280;55809;46.618;10.764;2023-05-03T10:42:37;93156.00;;;24.46;24.77
57248;BME280;55809;46.618;10.764;2023-05-03T10:45:19;93157.81;;;24.95;24.27
57248;BME280;55809;46.618;10.764;2023-05-03T10:48:14;64767.38;;;-145.41;100.00
57248;BME280;55809;46.618;10.764;2023-05-03T10:50:46;64767.38;;;-145.41;100.00
57248;BME280;55809;46.618;10.764;2023-05-03T10:53:33;64767.38;;;-145.41;100.00
57248;BME280;55809;46.618;10.764;2023-05-03T10:56:02;64767.38;;;-145.41;100.00
57248;BME280;55809;46.618;10.764;2023-05-03T10:58:35;64767.38;;;-145.41;100.00
57248;BME280;55809;46.618;10.764;2023-05-03T11:01:06;64767.38;;;-145.41;100.00
57248;BME280;55809;46.618;10.764;2023-05-03T11:03:42;64767.38;;;-145.41;100.00
57248;BME280;55809;46.618;10.764;2023-05-03T11:06:31;64767.38;;;-145.41;100.00
57248;BME280;55809;46.618;10.764;2023-05-03T11:09:00;64767.38;;;-145.41;100.00
57248;BME280;55809;46.618;10.764;2023-05-03T11:11:30;64767.38;;;-145.41;100.00
57248;BME280;55809;46.618;10.764;2023-05-03T11:13:58;64767.38;;;-145.41;100.00
57248;BME280;55809;46.618;10.764;2023-05-03T11:16:29;64767.38;;;-145.41;100.00
57248;BME280;55809;46.618;10.764;2023-05-03T11:18:58;64767.38;;;-145.41;100.00
57248;BME280;55809;46.618;10.764;2023-05-03T11:21:27;64767.38;;;-145.41;100.00
57248;BME280;55809;46.618;10.764;2023-05-03T11:23:54;64767.38;;;-145.41;100.00
57248;BME280;55809;46.618;10.764;2023-05-03T11:26:23;64767.38;;;-145.41;100.00
57248;BME280;55809;46.618;10.764;2023-05-03T11:28:50;64767.38;;;-145.41;100.00
57248;BME280;55809;46.618;10.764;2023-05-03T11:31:20;64767.38;;;-145.41;100.00
57248;BME280;55809;46.618;10.764;2023-05-03T11:33:49;64767.38;;;-145.41;100.00
57248;BME280;55809;46.618;10.764;2023-05-03T11:36:16;64767.38;;;-145.41;100.00
57248;BME280;55809;46.618;10.764;2023-05-03T11:38:47;64767.38;;;-145.41;100.00
57248;BME280;55809;46.618;10.764;2023-05-03T11:41:17;64767.38;;;-145.41;100.00
57248;BME280;55809;46.618;10.764;2023-05-03T11:43:48;64767.38;;;-145.41;100.00
57248;BME280;55809;46.618;10.764;2023-05-03T11:46:20;64767.38;;;-145.41;100.00
57248;BME280;55809;46.618;10.764;2023-05-03T11:48:49;64767.38;;;-145.41;100.00
57248;BME280;55809;46.618;10.764;2023-05-03T11:51:20;64767.38;;;-145.41;100.00
57248;BME280;55809;46.618;10.764;2023-05-03T11:53:47;64767.38;;;-145.41;100.00
57248;BME280;55809;46.618;10.764;2023-05-03T11:56:14;64767.38;;;-145.41;100.00
57248;BME280;55809;46.618;10.764;2023-05-03T11:58:50;64767.38;;;-145.41;100.00
57248;BME280;55809;46.618;10.764;2023-05-03T12:01:26;64767.38;;;-145.41;100.00
57248;BME280;55809;46.618;10.764;2023-05-03T12:04:00;64767.38;;;-145.41;100.00
57248;BME280;55809;46.618;10.764;2023-05-03T12:06:30;64767.38;;;-145.41;100.00
57248;BME280;55809;46.618;10.764;2023-05-03T12:08:58;64767.38;;;-145.41;100.00
57248;BME280;55809;46.618;10.764;2023-05-03T12:11:26;64767.38;;;-145.41;100.00
57248;BME280;55809;46.618;10.764;2023-05-03T12:13:59;64767.38;;;-145.41;100.00
57248;BME280;55809;46.618;10.764;2023-05-03T12:16:47;64767.38;;;-145.41;100.00
57248;BME280;55809;46.618;10.764;2023-05-03T12:19:24;64767.38;;;-145.41;100.00
57248;BME280;55809;46.618;10.764;2023-05-03T12:21:52;64767.38;;;-145.41;100.00
57248;BME280;55809;46.618;10.764;2023-05-03T12:24:23;64767.38;;;-145.41;100.00
57248;BME280;55809;46.618;10.764;2023-05-03T12:27:00;64767.38;;;-145.41;100.00
57248;BME280;55809;46.618;10.764;2023-05-03T12:29:27;64767.38;;;-145.41;100.00
57248;BME280;55809;46.618;10.764;2023-05-03T12:31:55;64767.38;;;-145.41;100.00
57248;BME280;55809;46.618;10.764;2023-05-03T12:34:28;64767.38;;;-145.41;100.00
57248;BME280;55809;46.618;10.764;2023-05-03T12:36:55;64767.38;;;-145.41;100.00
57248;BME280;55809;46.618;10.764;2023-05-03T12:39:27;93157.81;;;24.95;24.27
57248;BME280;55809;46.618;10.764;2023-05-03T12:41:54;93041.63;;;21.41;26.02
57248;BME280;55809;46.618;10.764;2023-05-03T12:44:21;93031.47;;;21.23;27.44
57248;BME280;55809;46.618;10.764;2023-05-03T12:46:49;93035.25;;;21.35;27.24
57248;BME280;55809;46.618;10.764;2023-05-03T12:49:15;93032.75;;;21.56;28.34
57248;BME280;55809;46.618;10.764;2023-05-03T12:51:44;93029.56;;;21.48;27.17
57248;BME280;55809;46.618;10.764;2023-05-03T12:54:10;93010.09;;;21.37;27.45
57248;BME280;55809;46.618;10.764;2023-05-03T12:56:37;93022.06;;;21.48;26.71
57248;BME280;55809;46.618;10.764;2023-05-03T12:59:04;93019.06;;;21.46;27.36
57248;BME280;55809;46.618;10.764;2023-05-03T13:01:31;93018.84;;;21.59;26.63
57248;BME280;55809;46.618;10.764;2023-05-03T13:03:58;93013.97;;;21.54;26.37
57248;BME280;55809;46.618;10.764;2023-05-03T13:06:25;93015.03;;;21.57;26.24
57248;BME280;55809;46.618;10.764;2023-05-03T13:08:53;93018.34;;;21.61;27.52
57248;BME280;55809;46.618;10.764;2023-05-03T13:11:20;92983.78;;;21.12;26.19
57248;BME280;55809;46.618;10.764;2023-05-03T13:13:50;93019.81;;;21.04;26.16
57248;BME280;55809;46.618;10.764;2023-05-03T13:16:17;93005.09;;;20.93;25.98
57248;BME280;55809;46.618;10.764;2023-05-03T13:18:44;93014.09;;;20.84;28.01
57248;BME280;55809;46.618;10.764;2023-05-03T13:21:12;93006.13;;;20.86;28.94
57248;BME280;55809;46.618;10.764;2023-05-03T13:23:39;92977.84;;;20.80;29.76
57248;BME280;55809;46.618;10.764;2023-05-03T13:26:07;92986.50;;;20.88;28.51
57248;BME280;55809;46.618;10.764;2023-05-03T13:28:34;92991.19;;;20.96;27.94